Time;durP1;ratioP1;P1;durP2;ratioP2;P2;SDS_P1;SDS_P2;PMS_P1;PMS_P2;Temp;Humidity;BMP_temperature;BMP_pressure;BME280_temperature;BME280_humidity;BME280_pressure;Samples;Min_cycle;Max_cycle;Signal;HPM_P1;HPM_P2
2021/06/12 00:01:36;;;;;;;1.00;0.85;;;26.60;48.10;;;;;;5089976;28;20114;-49
2021/06/12 00:04:03;;;;;;;1.17;0.80;;;26.60;48.10;;;;;;5089388;28;20106;-49
2021/06/12 00:06:29;;;;;;;1.52;0.90;;;26.60;48.10;;;;;;5088782;28;20359;-50
2021/06/12 00:08:54;;;;;;;0.90;0.70;;;26.60;48.20;;;;;;5088888;28;20024;-50
2021/06/12 00:11:20;;;;;;;1.00;0.90;;;26.60;48.20;;;;;;5090735;28;20082;-47
2021/06/12 00:13:46;;;;;;;1.40;0.98;;;26.50;48.10;;;;;;5091956;28;20024;-50
2021/06/12 00:16:12;;;;;;;0.80;0.80;;;26.50;48.20;;;;;;5090055;28;20054;-49
2021/06/12 00:18:38;;;;;;;1.20;0.90;;;26.50;48.20;;;;;;5086044;28;20028;-51
2021/06/12 00:21:04;;;;;;;1.30;0.80;;;26.50;48.20;;;;;;5090137;28;20142;-49
2021/06/12 00:23:30;;;;;;;0.73;0.73;;;26.60;48.30;;;;;;5089237;28;20055;-51
2021/06/12 00:25:55;;;;;;;0.75;0.75;;;26.50;48.30;;;;;;5089603;28;20052;-49
2021/06/12 00:28:21;;;;;;;1.40;0.90;;;26.50;48.30;;;;;;5089650;28;20035;-49
2021/06/12 00:30:47;;;;;;;0.88;0.80;;;26.50;48.30;;;;;;5085127;28;20439;-51
2021/06/12 00:33:13;;;;;;;0.70;0.70;;;26.50;48.40;;;;;;5088426;28;20028;-49
2021/06/12 00:35:39;;;;;;;0.98;0.85;;;26.50;48.40;;;;;;5088309;28;20032;-47
2021/06/12 00:38:05;;;;;;;0.75;0.70;;;26.50;48.40;;;;;;5093818;28;20039;-50
2021/06/12 00:40:31;;;;;;;0.85;0.60;;;26.50;48.40;;;;;;5093554;28;20051;-52
2021/06/12 00:42:56;;;;;;;1.38;0.65;;;26.50;48.40;;;;;;5094309;28;20024;-52
2021/06/12 00:45:25;;;;;;;1.02;0.90;;;26.50;48.50;;;;;;5093783;28;20043;-54
2021/06/12 00:47:52;;;;;;;1.10;0.90;;;26.50;48.50;;;;;;5094179;28;20443;-50
2021/06/12 00:50:21;;;;;;;1.52;1.00;;;26.50;48.50;;;;;;5090948;28;20447;-50
2021/06/12 00:52:47;;;;;;;1.80;1.00;;;26.50;48.60;;;;;;5091905;28;20047;-50
2021/06/12 00:55:14;;;;;;;1.25;1.10;;;26.50;48.60;;;;;;5093785;28;20036;-53
2021/06/12 00:57:41;;;;;;;1.13;1.00;;;26.50;48.60;;;;;;5093715;28;20089;-50
2021/06/12 01:00:14;;;;;;;1.20;0.90;;;26.40;48.50;;;;;;5090758;28;20036;-51
2021/06/12 01:02:40;;;;;;;1.48;1.00;;;26.40;48.60;;;;;;5091010;28;20028;-51
2021/06/12 01:05:08;;;;;;;1.38;0.88;;;26.40;48.60;;;;;;5093198;28;20042;-50
2021/06/12 01:07:35;;;;;;;1.10;1.00;;;26.40;48.60;;;;;;5093207;28;20024;-52
2021/06/12 01:10:00;;;;;;;0.80;0.80;;;26.40;48.60;;;;;;5092940;28;20065;-52
2021/06/12 01:12:50;;;;;;;1.95;1.30;;;26.40;48.60;;;;;;5092344;28;20062;-49
2021/06/12 01:15:17;;;;;;;1.08;0.90;;;26.40;48.60;;;;;;5091980;28;20031;-51
2021/06/12 01:17:46;;;;;;;1.55;0.88;;;26.40;48.70;;;;;;5093185;28;20061;-50
2021/06/12 01:20:37;;;;;;;1.20;1.00;;;26.30;48.60;;;;;;5090914;28;20064;-49
2021/06/12 01:23:32;;;;;;;1.15;1.00;;;26.40;48.70;;;;;;5092016;28;20070;-49
2021/06/12 01:26:14;;;;;;;2.08;0.88;;;26.40;48.70;;;;;;5089796;28;20462;-49
2021/06/12 01:29:03;;;;;;;2.15;1.45;;;26.30;49.30;;;;;;5091426;28;20484;-50
2021/06/12 01:31:30;;;;;;;1.17;1.08;;;26.30;48.60;;;;;;5091582;28;20043;-51
2021/06/12 01:33:58;;;;;;;1.83;1.15;;;26.30;48.70;;;;;;5092927;28;20150;-49
2021/06/12 01:36:25;;;;;;;1.10;0.82;;;26.30;48.70;;;;;;5092424;28;20024;-52
2021/06/12 01:38:54;;;;;;;2.95;1.10;;;26.30;48.70;;;;;;5092793;28;20031;-48
2021/06/12 01:41:21;;;;;;;1.73;1.08;;;26.30;48.80;;;;;;5090044;28;20103;-50
2021/06/12 01:43:49;;;;;;;1.55;0.95;;;26.30;48.80;;;;;;5090401;28;20427;-51
2021/06/12 01:46:15;;;;;;;1.30;0.93;;;26.30;48.80;;;;;;5092228;28;20173;-52
2021/06/12 01:48:43;;;;;;;1.85;1.13;;;26.30;48.80;;;;;;5092884;28;20035;-48
2021/06/12 01:51:11;;;;;;;1.27;1.10;;;26.30;48.80;;;;;;5091672;28;20432;-46
2021/06/12 01:53:40;;;;;;;1.27;1.00;;;26.30;48.80;;;;;;5092654;28;20024;-49
2021/06/12 01:56:08;;;;;;;1.00;0.90;;;26.30;48.90;;;;;;5092409;28;20063;-50
2021/06/12 01:58:37;;;;;;;1.20;0.90;;;26.30;48.90;;;;;;5093067;28;20024;-52
2021/06/12 02:01:05;;;;;;;1.05;0.98;;;26.20;48.80;;;;;;5087130;28;20024;-52
2021/06/12 02:03:32;;;;;;;1.83;1.05;;;26.20;48.90;;;;;;5092051;28;20032;-51
2021/06/12 02:06:00;;;;;;;1.52;0.95;;;26.30;49.00;;;;;;5087592;28;20020;-50
2021/06/12 02:08:27;;;;;;;2.17;1.30;;;26.20;48.90;;;;;;5091861;28;20097;-49
2021/06/12 02:10:53;;;;;;;1.20;1.10;;;26.20;48.90;;;;;;5092215;28;20078;-46
2021/06/12 02:13:24;;;;;;;1.90;1.00;;;26.20;49.00;;;;;;5091773;28;20065;-49
2021/06/12 02:15:53;;;;;;;1.10;0.98;;;26.20;49.00;;;;;;5092346;28;20043;-46
2021/06/12 02:18:19;;;;;;;1.35;1.10;;;26.20;49.00;;;;;;5092520;28;20504;-46
2021/06/12 02:20:47;;;;;;;1.60;1.08;;;26.20;49.00;;;;;;5090313;28;20031;-50
2021/06/12 02:23:14;;;;;;;2.22;1.20;;;26.20;49.00;;;;;;5089779;28;20020;-52
2021/06/12 02:25:40;;;;;;;1.30;1.02;;;26.20;49.10;;;;;;5089764;28;20097;-52
2021/06/12 02:28:10;;;;;;;1.90;1.30;;;26.20;49.10;;;;;;5092416;28;20024;-49
2021/06/12 02:30:45;;;;;;;1.02;0.93;;;26.20;49.10;;;;;;5091498;28;20040;-50
2021/06/12 02:33:14;;;;;;;1.00;0.90;;;26.20;49.20;;;;;;5089710;28;20028;-50
2021/06/12 02:35:41;;;;;;;1.58;1.00;;;26.10;49.10;;;;;;5092327;28;20024;-52
2021/06/12 02:38:06;;;;;;;1.60;0.90;;;26.10;49.10;;;;;;5092296;28;20077;-51
2021/06/12 02:40:33;;;;;;;1.60;1.20;;;26.10;49.10;;;;;;5091742;28;20067;-49
2021/06/12 02:42:58;;;;;;;2.20;1.33;;;26.10;49.10;;;;;;5091015;28;20336;-48
2021/06/12 02:45:25;;;;;;;1.92;1.45;;;26.10;49.10;;;;;;5091726;28;20035;-50
2021/06/12 02:47:55;;;;;;;1.33;1.05;;;26.10;49.10;;;;;;5091611;28;20028;-52
2021/06/12 02:50:24;;;;;;;1.70;0.90;;;26.10;49.10;;;;;;5091529;28;20063;-50
2021/06/12 02:52:52;;;;;;;1.42;0.98;;;26.10;49.10;;;;;;5093487;28;20032;-49
2021/06/12 02:55:18;;;;;;;1.63;1.20;;;26.10;49.10;;;;;;5095917;28;20052;-51
2021/06/12 02:57:47;;;;;;;1.30;1.00;;;26.10;49.10;;;;;;5095866;28;20107;-53
2021/06/12 03:00:14;;;;;;;1.75;1.20;;;26.10;49.10;;;;;;5094786;28;20043;-47
2021/06/12 03:02:43;;;;;;;2.65;1.50;;;26.10;49.10;;;;;;5096417;28;20171;-50
2021/06/12 03:05:15;;;;;;;1.85;1.10;;;26.10;49.10;;;;;;5095304;28;20426;-53
2021/06/12 03:07:48;;;;;;;1.52;1.20;;;26.10;49.10;;;;;;5092899;28;20157;-49
2021/06/12 03:10:15;;;;;;;2.08;1.30;;;26.10;49.10;;;;;;5095174;28;20059;-52
2021/06/12 03:12:43;;;;;;;2.17;1.27;;;26.00;49.10;;;;;;5095704;28;20492;-49
2021/06/12 03:15:10;;;;;;;1.80;1.20;;;26.00;49.10;;;;;;5092008;28;20037;-53
2021/06/12 03:17:36;;;;;;;1.50;1.08;;;26.00;49.00;;;;;;5094312;28;20025;-53
2021/06/12 03:20:05;;;;;;;1.70;1.00;;;26.10;49.10;;;;;;5090927;28;20039;-49
2021/06/12 03:22:33;;;;;;;2.45;1.48;;;26.10;49.10;;;;;;5095557;28;20039;-47
2021/06/12 03:25:02;;;;;;;1.63;1.00;;;26.10;49.70;;;;;;5094871;28;20121;-47
2021/06/12 03:27:28;;;;;;;2.35;1.35;;;26.10;49.10;;;;;;5094949;28;20393;-48
2021/06/12 03:29:56;;;;;;;2.88;1.20;;;26.10;49.10;;;;;;5095422;28;20522;-48
2021/06/12 03:32:23;;;;;;;2.05;1.30;;;26.00;49.00;;;;;;5095247;28;20031;-52
2021/06/12 03:34:50;;;;;;;2.50;1.52;;;26.00;49.00;;;;;;5095281;28;20463;-53
2021/06/12 03:37:17;;;;;;;1.52;1.17;;;26.00;49.00;;;;;;5093674;28;20123;-50
2021/06/12 03:39:43;;;;;;;2.13;1.38;;;26.00;49.10;;;;;;5091340;28;20024;-51
2021/06/12 03:42:10;;;;;;;2.42;1.40;;;26.00;49.00;;;;;;5095377;28;20028;-54
2021/06/12 03:44:38;;;;;;;1.92;1.45;;;26.00;49.00;;;;;;5094972;28;20028;-50
2021/06/12 03:47:06;;;;;;;2.03;1.35;;;26.00;49.10;;;;;;5095502;28;20052;-52
2021/06/12 03:49:33;;;;;;;2.80;1.30;;;26.00;49.00;;;;;;5093007;28;20028;-54
2021/06/12 03:52:00;;;;;;;1.90;1.15;;;25.90;49.00;;;;;;5094136;28;20036;-52
2021/06/12 03:54:27;;;;;;;1.60;1.02;;;25.90;49.00;;;;;;5094556;28;20032;-52
2021/06/12 03:56:53;;;;;;;1.83;1.05;;;25.90;49.00;;;;;;5094400;28;20024;-50
2021/06/12 03:59:22;;;;;;;1.58;0.98;;;25.90;49.00;;;;;;5095071;28;20039;-45
2021/06/12 04:01:48;;;;;;;2.38;1.30;;;25.90;49.00;;;;;;5094348;28;20024;-46
2021/06/12 04:04:14;;;;;;;2.15;1.58;;;25.90;49.00;;;;;;5093194;28;20032;-47
2021/06/12 04:06:40;;;;;;;1.73;1.35;;;25.90;49.10;;;;;;5094454;28;20061;-53
2021/06/12 04:09:06;;;;;;;1.33;1.20;;;25.90;49.20;;;;;;5094241;28;20024;-49
2021/06/12 04:11:31;;;;;;;2.03;1.35;;;25.90;49.20;;;;;;5091542;28;20107;-50
2021/06/12 04:13:59;;;;;;;3.13;1.45;;;25.90;49.20;;;;;;5095026;28;20419;-48
2021/06/12 04:16:25;;;;;;;2.17;1.27;;;25.90;49.20;;;;;;5094330;28;20032;-51
2021/06/12 04:18:51;;;;;;;3.03;1.30;;;25.90;49.20;;;;;;5094054;28;20054;-49
2021/06/12 04:21:17;;;;;;;2.28;1.17;;;25.90;49.30;;;;;;5092025;28;20443;-47
2021/06/12 04:23:43;;;;;;;1.23;0.93;;;25.90;49.30;;;;;;5092183;28;20028;-46
2021/06/12 04:26:08;;;;;;;1.83;1.20;;;25.90;49.30;;;;;;5091478;28;20111;-53
2021/06/12 04:28:34;;;;;;;3.35;1.25;;;25.90;49.30;;;;;;5094524;28;20024;-48
2021/06/12 04:31:00;;;;;;;3.83;1.45;;;25.90;49.30;;;;;;5094500;28;20367;-50
2021/06/12 04:33:26;;;;;;;2.63;1.38;;;25.90;49.30;;;;;;5093140;28;20044;-48
2021/06/12 04:35:52;;;;;;;2.30;1.60;;;25.90;49.40;;;;;;5092907;28;20027;-48
2021/06/12 04:38:18;;;;;;;1.63;1.30;;;25.90;49.40;;;;;;5094099;28;20024;-46
2021/06/12 04:40:44;;;;;;;2.00;1.38;;;25.90;49.40;;;;;;5091411;28;20075;-51
2021/06/12 04:43:12;;;;;;;1.85;1.20;;;25.90;49.50;;;;;;5093674;28;20036;-48
2021/06/12 04:45:38;;;;;;;1.63;1.40;;;25.90;49.50;;;;;;5093728;28;20031;-49
2021/06/12 04:48:05;;;;;;;2.08;1.50;;;25.90;49.50;;;;;;5092439;28;20115;-49
2021/06/12 04:50:35;;;;;;;2.08;1.20;;;25.80;49.40;;;;;;5093168;28;20040;-46
2021/06/12 04:53:01;;;;;;;2.00;1.30;;;25.90;49.50;;;;;;5094163;28;20610;-48
2021/06/12 04:55:27;;;;;;;2.72;1.50;;;25.80;49.50;;;;;;5090710;28;20107;-50
2021/06/12 04:57:52;;;;;;;2.00;1.80;;;25.90;49.60;;;;;;5088296;28;20108;-50
2021/06/12 05:00:19;;;;;;;2.38;1.70;;;25.80;49.50;;;;;;5093593;28;20120;-47
2021/06/12 05:02:45;;;;;;;2.55;1.92;;;25.80;49.50;;;;;;5092119;28;20419;-49
2021/06/12 05:05:11;;;;;;;3.63;1.60;;;25.80;49.50;;;;;;5093268;28;20032;-51
2021/06/12 05:07:37;;;;;;;1.95;1.67;;;25.80;49.50;;;;;;5093083;28;20102;-51
2021/06/12 05:10:05;;;;;;;2.47;1.63;;;25.80;49.50;;;;;;5090602;28;20036;-50
2021/06/12 05:12:31;;;;;;;2.15;1.63;;;25.80;49.50;;;;;;5088827;28;20053;-50
2021/06/12 05:15:00;;;;;;;2.08;1.73;;;25.80;49.50;;;;;;5090757;28;20430;-46
2021/06/12 05:17:26;;;;;;;2.20;1.90;;;25.80;49.50;;;;;;5093223;28;20020;-50
2021/06/12 05:19:52;;;;;;;2.33;1.67;;;25.80;49.50;;;;;;5093004;28;20308;-45
2021/06/12 05:22:22;;;;;;;2.40;1.63;;;25.80;49.50;;;;;;5091788;28;20035;-47
2021/06/12 05:24:48;;;;;;;2.03;1.48;;;25.80;49.50;;;;;;5091213;28;20028;-46
2021/06/12 05:27:15;;;;;;;2.13;1.70;;;25.80;49.50;;;;;;5092469;28;20051;-48
2021/06/12 05:29:41;;;;;;;2.35;1.50;;;25.80;49.50;;;;;;5087518;28;20069;-46
2021/06/12 05:32:07;;;;;;;2.38;1.65;;;25.80;49.50;;;;;;5092927;28;20075;-48
2021/06/12 05:34:33;;;;;;;3.80;1.80;;;25.80;49.50;;;;;;5092319;28;20092;-45
2021/06/12 05:37:00;;;;;;;2.42;1.73;;;25.80;49.50;;;;;;5092856;28;20032;-53
2021/06/12 05:39:26;;;;;;;2.67;1.90;;;25.80;49.50;;;;;;5092623;28;20020;-49
2021/06/12 05:41:51;;;;;;;2.75;1.98;;;25.80;49.50;;;;;;5092177;28;20035;-49
2021/06/12 05:44:17;;;;;;;1.83;1.45;;;25.80;49.50;;;;;;5093146;28;21576;-49
2021/06/12 05:46:43;;;;;;;1.67;1.42;;;25.80;49.50;;;;;;5091190;28;20031;-50
2021/06/12 05:49:09;;;;;;;2.50;1.58;;;25.80;49.50;;;;;;5092649;28;20035;-48
2021/06/12 05:51:35;;;;;;;2.25;1.75;;;25.80;49.50;;;;;;5091525;28;20399;-47
2021/06/12 05:54:00;;;;;;;2.33;1.52;;;25.80;49.50;;;;;;5092834;28;20036;-51
2021/06/12 05:56:26;;;;;;;2.17;1.30;;;25.80;49.50;;;;;;5091770;28;20036;-50
2021/06/12 05:58:52;;;;;;;2.88;1.60;;;25.80;49.50;;;;;;5090097;28;20111;-45
2021/06/12 06:01:18;;;;;;;2.17;1.40;;;25.80;49.50;;;;;;5092063;28;20031;-48
2021/06/12 06:03:44;;;;;;;2.00;1.30;;;25.80;49.50;;;;;;5092192;28;20316;-51
2021/06/12 06:06:09;;;;;;;2.72;1.65;;;25.80;49.50;;;;;;5092385;28;20024;-50
2021/06/12 06:08:35;;;;;;;2.50;1.45;;;25.80;49.50;;;;;;5091081;28;20020;-49
2021/06/12 06:11:04;;;;;;;2.60;1.45;;;25.80;49.50;;;;;;5091975;28;20105;-49
2021/06/12 06:13:38;;;;;;;2.28;1.27;;;25.80;49.50;;;;;;5092089;28;20036;-52
2021/06/12 06:16:04;;;;;;;1.85;1.35;;;25.80;49.50;;;;;;5093393;28;20039;-50
2021/06/12 06:18:30;;;;;;;3.28;1.52;;;25.80;49.50;;;;;;5092158;28;20056;-52
2021/06/12 06:20:56;;;;;;;2.75;1.40;;;25.80;49.40;;;;;;5091819;28;20034;-50
2021/06/12 06:23:22;;;;;;;1.73;1.38;;;25.80;49.40;;;;;;5092399;28;20032;-48
2021/06/12 06:25:48;;;;;;;4.07;1.38;;;25.80;49.40;;;;;;5091395;28;20028;-53
2021/06/12 06:28:14;;;;;;;1.92;1.42;;;25.80;49.40;;;;;;5091588;28;20032;-48
2021/06/12 06:30:40;;;;;;;1.60;1.35;;;25.80;49.40;;;;;;5092759;28;20039;-49
2021/06/12 06:33:06;;;;;;;2.55;1.38;;;25.80;49.30;;;;;;5091780;28;20028;-49
2021/06/12 06:35:31;;;;;;;1.88;1.35;;;25.80;49.30;;;;;;5092487;28;20089;-46
2021/06/12 06:37:57;;;;;;;2.78;1.38;;;25.80;49.20;;;;;;5089964;28;20032;-46
2021/06/12 06:40:24;;;;;;;2.08;1.40;;;25.90;49.10;;;;;;5088751;28;20044;-52
2021/06/12 06:42:50;;;;;;;2.38;1.40;;;25.80;49.00;;;;;;5092183;28;20028;-53
2021/06/12 06:45:16;;;;;;;3.58;1.50;;;25.90;49.00;;;;;;5091681;28;20032;-53
2021/06/12 06:47:41;;;;;;;2.60;1.30;;;25.80;48.90;;;;;;5092197;28;20081;-49
2021/06/12 06:50:08;;;;;;;2.88;1.50;;;25.90;49.00;;;;;;5088844;28;20031;-53
2021/06/12 06:52:34;;;;;;;1.75;1.30;;;25.90;48.90;;;;;;5087867;28;20315;-54
2021/06/12 06:55:00;;;;;;;2.50;1.20;;;25.90;48.80;;;;;;5090277;28;20016;-53
2021/06/12 06:57:26;;;;;;;2.47;1.40;;;25.90;48.60;;;;;;5090887;28;20038;-50
2021/06/12 06:59:52;;;;;;;2.92;1.45;;;25.90;48.50;;;;;;5091909;28;20040;-53
2021/06/12 07:02:18;;;;;;;2.35;1.27;;;26.00;48.50;;;;;;5086080;28;20351;-51
2021/06/12 07:04:44;;;;;;;1.38;0.88;;;25.90;48.40;;;;;;5090192;28;20028;-54
2021/06/12 07:07:10;;;;;;;2.40;1.25;;;26.00;48.30;;;;;;5091618;28;20036;-50
2021/06/12 07:09:36;;;;;;;1.98;1.20;;;26.00;48.30;;;;;;5091882;28;20485;-51
2021/06/12 07:12:03;;;;;;;1.80;1.15;;;26.00;48.10;;;;;;5089103;28;20035;-52
2021/06/12 07:14:30;;;;;;;1.98;1.48;;;26.00;48.00;;;;;;5091824;28;20032;-48
2021/06/12 07:16:56;;;;;;;1.50;1.02;;;26.10;47.90;;;;;;5091590;28;20110;-47
2021/06/12 07:19:22;;;;;;;1.70;1.10;;;26.10;47.70;;;;;;5091688;28;20413;-47
2021/06/12 07:21:49;;;;;;;1.85;1.25;;;26.10;47.50;;;;;;5090714;28;20046;-54
2021/06/12 07:24:15;;;;;;;3.25;1.42;;;26.10;47.40;;;;;;5072607;28;20027;-52
2021/06/12 07:26:43;;;;;;;2.15;1.30;;;26.10;47.20;;;;;;5087094;28;20039;-50
2021/06/12 07:29:10;;;;;;;1.30;0.93;;;26.20;47.10;;;;;;5088122;28;20312;-49
2021/06/12 07:31:38;;;;;;;2.10;1.27;;;26.20;47.00;;;;;;5088773;28;20050;-49
2021/06/12 07:34:05;;;;;;;1.55;1.20;;;26.20;46.70;;;;;;5087916;28;20032;-51
2021/06/12 07:36:31;;;;;;;1.70;1.40;;;26.20;46.60;;;;;;5089129;28;20675;-51
2021/06/12 07:38:57;;;;;;;2.25;1.02;;;26.20;46.40;;;;;;5091386;28;20024;-51
2021/06/12 07:41:23;;;;;;;2.45;1.38;;;26.30;46.30;;;;;;5086778;28;20055;-50
2021/06/12 07:43:50;;;;;;;1.27;1.00;;;26.30;46.20;;;;;;5091626;28;20059;-49
2021/06/12 07:46:16;;;;;;;1.75;0.90;;;26.30;46.00;;;;;;5093596;28;20024;-48
2021/06/12 07:48:42;;;;;;;1.73;0.90;;;26.30;45.80;;;;;;5092975;28;20028;-53
2021/06/12 07:51:08;;;;;;;2.20;1.23;;;26.30;45.70;;;;;;5093479;28;20039;-49
2021/06/12 07:53:34;;;;;;;1.80;1.00;;;26.30;45.50;;;;;;5088317;28;20323;-53
2021/06/12 07:56:00;;;;;;;2.30;1.00;;;26.30;45.40;;;;;;5085220;28;20067;-52
2021/06/12 07:58:27;;;;;;;2.63;1.20;;;26.30;45.30;;;;;;5086179;28;20438;-53
2021/06/12 08:00:53;;;;;;;1.58;1.20;;;26.30;45.10;;;;;;5091797;28;20111;-53
2021/06/12 08:03:19;;;;;;;1.45;0.93;;;26.30;45.00;;;;;;5094030;28;20350;-51
2021/06/12 08:05:45;;;;;;;1.25;0.98;;;26.30;44.80;;;;;;5092445;28;20024;-49
2021/06/12 08:08:10;;;;;;;1.75;1.00;;;26.30;44.70;;;;;;5092517;28;20020;-53
2021/06/12 08:10:36;;;;;;;1.83;0.90;;;26.40;45.30;;;;;;5093555;28;20036;-50
2021/06/12 08:13:02;;;;;;;2.05;1.10;;;26.40;44.50;;;;;;5093572;28;20036;-50
2021/06/12 08:15:29;;;;;;;1.70;0.98;;;26.30;44.30;;;;;;5089320;28;20051;-51
2021/06/12 08:17:55;;;;;;;2.20;1.45;;;26.40;44.90;;;;;;5093517;28;21601;-52
2021/06/12 08:20:24;;;;;;;0.90;0.80;;;26.40;44.10;;;;;;5091298;28;20040;-49
2021/06/12 08:22:50;;;;;;;1.55;0.93;;;26.40;43.90;;;;;;5089938;28;20024;-52
2021/06/12 08:25:17;;;;;;;1.33;0.90;;;26.40;43.80;;;;;;5091327;28;20040;-50
2021/06/12 08:27:44;;;;;;;1.70;0.90;;;26.40;43.60;;;;;;5090334;28;20651;-49
2021/06/12 08:30:10;;;;;;;2.17;1.10;;;26.50;43.50;;;;;;5093109;28;20425;-50
2021/06/12 08:32:37;;;;;;;2.13;1.05;;;26.50;43.40;;;;;;5094361;28;20028;-46
2021/06/12 08:35:03;;;;;;;0.90;0.70;;;26.50;43.30;;;;;;5094061;28;20089;-50
2021/06/12 08:37:29;;;;;;;1.20;0.82;;;26.50;43.20;;;;;;5094333;28;20045;-48
2021/06/12 08:39:55;;;;;;;1.38;0.93;;;26.50;43.10;;;;;;5093219;28;20137;-49
2021/06/12 08:42:22;;;;;;;1.10;0.75;;;26.50;43.00;;;;;;5093884;28;20028;-48
2021/06/12 08:44:48;;;;;;;1.48;0.93;;;26.60;42.90;;;;;;5093815;28;20073;-49
2021/06/12 08:47:14;;;;;;;1.85;1.00;;;26.60;42.80;;;;;;5093664;28;20028;-48
2021/06/12 08:49:41;;;;;;;1.00;0.82;;;26.60;42.80;;;;;;5092892;28;20032;-51
2021/06/12 08:52:07;;;;;;;1.65;0.80;;;26.60;42.70;;;;;;5091194;28;20043;-48
2021/06/12 08:54:34;;;;;;;1.65;0.70;;;26.60;42.50;;;;;;5088317;28;20038;-51
2021/06/12 08:56:59;;;;;;;0.80;0.70;;;26.60;42.50;;;;;;5084943;28;20028;-50
2021/06/12 08:59:31;;;;;;;0.90;0.70;;;26.70;42.50;;;;;;5091380;28;20397;-49
2021/06/12 09:01:57;;;;;;;0.95;0.73;;;26.70;42.30;;;;;;5086306;28;20028;-47
2021/06/12 09:04:44;;;;;;;1.00;0.65;;;26.70;42.20;;;;;;5088163;28;20024;-49
2021/06/12 09:07:28;;;;;;;1.88;0.80;;;26.70;42.00;;;;;;5090782;28;20406;-47
2021/06/12 09:09:57;;;;;;;1.02;0.70;;;26.70;41.90;;;;;;5085656;28;20028;-51
2021/06/12 09:12:43;;;;;;;1.75;0.93;;;26.70;42.00;;;;;;5088119;28;20052;-49
2021/06/12 09:15:27;;;;;;;1.75;0.93;;;26.70;41.90;;;;;;5085480;28;20084;-45
2021/06/12 09:17:54;;;;;;;1.73;1.15;;;26.70;41.70;;;;;;5091034;28;20024;-49
2021/06/12 09:20:40;;;;;;;0.95;0.70;;;26.70;41.70;;;;;;5090832;28;20100;-53
2021/06/12 09:23:16;;;;;;;1.08;0.90;;;26.80;41.50;;;;;;5084735;28;20439;-54
2021/06/12 09:25:45;;;;;;;1.67;0.85;;;26.80;41.50;;;;;;5086680;28;20321;-49
2021/06/12 09:28:12;;;;;;;1.08;0.95;;;26.80;41.40;;;;;;5091413;28;20106;-47
2021/06/12 09:30:38;;;;;;;1.67;0.90;;;26.80;41.40;;;;;;5087678;28;20470;-48
2021/06/12 09:33:05;;;;;;;2.13;0.88;;;26.80;41.40;;;;;;5090655;28;20411;-49
2021/06/12 09:35:36;;;;;;;1.17;0.93;;;26.80;41.20;;;;;;5085182;28;20107;-47
2021/06/12 09:38:25;;;;;;;12.10;1.23;;;26.90;41.10;;;;;;5087329;28;20047;-46
2021/06/12 09:40:52;;;;;;;1.15;0.95;;;26.90;41.00;;;;;;5082018;28;20038;-50
2021/06/12 09:43:32;;;;;;;2.95;0.88;;;26.90;41.10;;;;;;5088699;28;20028;-48
2021/06/12 09:45:59;;;;;;;1.90;1.38;;;26.90;40.90;;;;;;5089622;28;20036;-52
2021/06/12 09:48:25;;;;;;;1.52;0.90;;;26.90;41.00;;;;;;5089030;28;20032;-55
2021/06/12 09:51:11;;;;;;;2.30;0.90;;;26.80;41.00;;;;;;5091437;28;20349;-52
2021/06/12 09:53:52;;;;;;;1.30;0.70;;;26.90;40.80;;;;;;5089541;28;20414;-55
2021/06/12 09:56:19;;;;;;;1.63;0.95;;;26.90;41.00;;;;;;5085832;28;20097;-50
2021/06/12 09:58:45;;;;;;;2.10;1.20;;;26.80;40.70;;;;;;5088160;28;20393;-53
2021/06/12 10:01:15;;;;;;;1.58;0.98;;;26.80;40.70;;;;;;5090711;28;20470;-53
2021/06/12 10:03:41;;;;;;;1.42;0.90;;;26.90;40.70;;;;;;5089796;28;20050;-53
2021/06/12 10:06:11;;;;;;;2.20;0.95;;;26.90;40.70;;;;;;5089400;28;20029;-55
2021/06/12 10:08:39;;;;;;;2.97;1.23;;;26.90;40.50;;;;;;5088389;28;20038;-55
2021/06/12 10:11:05;;;;;;;1.75;1.00;;;26.90;41.10;;;;;;5087963;28;20407;-50
2021/06/12 10:13:32;;;;;;;1.73;0.90;;;26.90;40.40;;;;;;5086000;28;20043;-52
2021/06/12 10:15:59;;;;;;;1.75;0.95;;;26.90;40.40;;;;;;5086093;28;20115;-49
2021/06/12 10:18:25;;;;;;;1.15;0.68;;;26.90;40.40;;;;;;5090492;28;20443;-50
2021/06/12 10:20:53;;;;;;;1.63;1.00;;;26.90;40.30;;;;;;5087311;28;20361;-47
2021/06/12 10:23:19;;;;;;;1.30;0.88;;;26.90;40.30;;;;;;5083202;28;20066;-53
2021/06/12 10:25:46;;;;;;;1.45;1.20;;;26.90;40.20;;;;;;5088369;28;20036;-51
2021/06/12 10:28:12;;;;;;;1.42;1.02;;;26.90;40.10;;;;;;5088595;28;20051;-50
2021/06/12 10:30:38;;;;;;;2.47;1.00;;;27.00;40.10;;;;;;5086444;28;20056;-57
2021/06/12 10:33:06;;;;;;;2.30;1.20;;;27.00;40.10;;;;;;5081904;28;20451;-52
2021/06/12 10:35:33;;;;;;;2.15;1.08;;;26.90;39.90;;;;;;5085295;28;20111;-52
2021/06/12 10:38:05;;;;;;;1.60;1.00;;;27.00;40.00;;;;;;5088883;28;20024;-51
2021/06/12 10:40:44;;;;;;;2.25;1.00;;;26.90;40.00;;;;;;5086874;28;20024;-51
2021/06/12 10:43:15;;;;;;;1.10;0.85;;;27.00;40.00;;;;;;5087540;28;20432;-52
2021/06/12 10:45:47;;;;;;;1.77;0.90;;;26.90;40.00;;;;;;5085261;28;20471;-50
2021/06/12 10:48:38;;;;;;;1.70;0.88;;;27.00;40.00;;;;;;5086411;28;20156;-50
2021/06/12 10:51:05;;;;;;;1.40;0.90;;;27.00;40.00;;;;;;5084242;28;20477;-54
2021/06/12 10:53:34;;;;;;;1.33;0.85;;;27.00;40.20;;;;;;5085657;28;20028;-51
2021/06/12 10:56:08;;;;;;;2.40;1.02;;;27.00;40.20;;;;;;5089100;28;20407;-53
2021/06/12 10:58:34;;;;;;;1.92;1.15;;;27.00;40.20;;;;;;5087571;28;20028;-53
2021/06/12 11:01:14;;;;;;;2.30;0.85;;;27.00;40.20;;;;;;5086704;28;20038;-54
2021/06/12 11:04:04;;;;;;;1.95;0.98;;;27.00;40.20;;;;;;5087538;28;20050;-54
2021/06/12 11:06:49;;;;;;;1.73;0.77;;;27.00;40.10;;;;;;5082407;28;20225;-55
2021/06/12 11:09:15;;;;;;;2.28;1.20;;;27.00;40.00;;;;;;5088096;28;20355;-55
2021/06/12 11:11:43;;;;;;;1.20;0.90;;;27.00;40.00;;;;;;5086890;28;20141;-56
2021/06/12 11:14:29;;;;;;;0.90;0.60;;;27.00;40.00;;;;;;5091735;28;20032;-53
2021/06/12 11:17:07;;;;;;;1.85;0.90;;;27.00;39.80;;;;;;5092602;28;20107;-52
2021/06/12 11:19:35;;;;;;;1.10;0.70;;;27.00;39.70;;;;;;5090008;28;20031;-54
2021/06/12 11:22:35;;;;;;;2.28;0.93;;;27.00;39.70;;;;;;5089097;28;20020;-53
2021/06/12 11:25:07;;;;;;;1.33;0.80;;;27.00;39.50;;;;;;5088113;28;20051;-51
2021/06/12 11:27:34;;;;;;;1.60;0.73;;;27.00;39.50;;;;;;5092174;28;20120;-49
2021/06/12 11:30:19;;;;;;;2.05;0.75;;;27.00;39.40;;;;;;5092755;28;20093;-56
2021/06/12 11:33:00;;;;;;;1.52;0.70;;;27.10;39.50;;;;;;5087777;28;20031;-57
2021/06/12 11:35:48;;;;;;;2.97;0.88;;;27.10;39.40;;;;;;5082445;28;20047;-57
2021/06/12 11:38:32;;;;;;;1.67;0.93;;;27.10;39.30;;;;;;5093161;28;20024;-57
2021/06/12 11:41:02;;;;;;;1.88;0.90;;;27.10;39.30;;;;;;5091249;28;20028;-54
2021/06/12 11:43:41;;;;;;;1.45;0.77;;;27.10;39.10;;;;;;5090789;28;20443;-58
2021/06/12 11:46:28;;;;;;;1.83;0.60;;;27.10;39.10;;;;;;5091531;28;20036;-60
2021/06/12 11:48:55;;;;;;;2.72;0.60;;;27.20;39.20;;;;;;5089232;28;20024;-58
2021/06/12 11:51:31;;;;;;;0.95;0.63;;;27.10;39.20;;;;;;5085199;28;20040;-54
2021/06/12 11:54:16;;;;;;;1.30;0.70;;;27.20;39.20;;;;;;5091949;28;20118;-57
2021/06/12 11:56:57;;;;;;;1.80;0.70;;;27.10;39.10;;;;;;5090967;28;20036;-58
2021/06/12 11:59:25;;;;;;;0.82;0.60;;;27.20;39.10;;;;;;5086700;28;20537;-58
2021/06/12 12:01:57;;;;;;;4.93;1.20;;;27.10;39.00;;;;;;5089498;28;20036;-56
2021/06/12 12:04:24;;;;;;;1.48;0.60;;;27.20;39.00;;;;;;5091074;28;20068;-60
2021/06/12 12:06:52;;;;;;;1.15;0.75;;;27.20;39.00;;;;;;5081695;28;20406;-60
2021/06/12 12:09:32;;;;;;;0.95;0.60;;;27.20;38.90;;;;;;5088310;28;20027;-59
2021/06/12 12:12:04;;;;;;;1.05;0.63;;;27.20;38.80;;;;;;5083333;28;20497;-59
2021/06/12 12:14:40;;;;;;;1.48;0.50;;;27.20;38.90;;;;;;5092969;28;20032;-61
2021/06/12 12:17:19;;;;;;;0.93;0.60;;;27.20;38.80;;;;;;5083969;28;20040;-57
2021/06/12 12:19:45;;;;;;;1.40;0.73;;;27.20;38.80;;;;;;5087956;28;20050;-58
2021/06/12 12:22:11;;;;;;;0.80;0.50;;;27.20;38.70;;;;;;5088860;28;20020;-58
2021/06/12 12:24:37;;;;;;;1.52;0.70;;;27.20;38.60;;;;;;5089338;28;20160;-57
2021/06/12 12:27:09;;;;;;;1.40;0.55;;;27.20;38.60;;;;;;5074832;28;20061;-55
2021/06/12 12:29:39;;;;;;;1.55;0.82;;;27.20;38.50;;;;;;5082811;28;20113;-55
2021/06/12 12:32:06;;;;;;;1.10;0.50;;;27.20;38.40;;;;;;5082697;28;20196;-56
2021/06/12 12:34:38;;;;;;;1.50;0.73;;;27.20;38.30;;;;;;5087500;28;20038;-54
2021/06/12 12:37:16;;;;;;;0.82;0.70;;;27.30;38.30;;;;;;5089669;28;20039;-56
2021/06/12 12:39:45;;;;;;;1.77;0.70;;;27.30;38.20;;;;;;5090050;28;20028;-58
2021/06/12 12:42:17;;;;;;;2.25;0.73;;;27.30;38.20;;;;;;5082156;28;20448;-59
2021/06/12 12:44:45;;;;;;;1.52;0.93;;;27.30;38.10;;;;;;5085658;28;20027;-60
2021/06/12 12:47:17;;;;;;;1.23;0.80;;;27.30;38.10;;;;;;5086396;28;20032;-57
2021/06/12 12:49:44;;;;;;;1.23;0.82;;;27.30;38.00;;;;;;5084700;28;20032;-58
2021/06/12 12:52:27;;;;;;;1.05;0.95;;;27.30;38.00;;;;;;5089868;28;20036;-58
2021/06/12 12:55:00;;;;;;;1.15;0.70;;;27.30;37.80;;;;;;5088717;28;20028;-55
2021/06/12 12:57:43;;;;;;;1.77;1.20;;;27.30;37.80;;;;;;5084252;28;20061;-59